createdAt,value
2022-10-20T00:04:31.603Z,89.28302
2022-10-20T00:09:33.289Z,80.28319
2022-10-20T00:14:35.230Z,80.88889
2022-10-20T00:19:37.380Z,79.98234
2022-10-20T00:24:39.074Z,77.91304
2022-10-20T00:29:41.132Z,82.73874
2022-10-20T00:34:42.854Z,82.11659
2022-10-20T00:39:44.775Z,79.68282
2022-10-20T00:44:46.479Z,79.68282
2022-10-20T00:49:48.482Z,78.79212
2022-10-20T00:54:50.815Z,80.58537
2022-10-20T00:59:52.548Z,88.60094
2022-10-20T01:04:54.494Z,82.11659
2022-10-20T01:09:56.634Z,79.98234
2022-10-20T01:14:58.654Z,95.72414
2022-10-20T01:20:00.472Z,97.23383
2022-10-20T01:25:02.405Z,84.31891
2022-10-20T01:30:04.465Z,84.31891
2022-10-20T01:35:06.137Z,88.2623
2022-10-20T01:40:08.055Z,87.92523
2022-10-20T01:45:09.805Z,86.92343
2022-10-20T01:50:11.398Z,86.92343
2022-10-20T01:55:13.141Z,89.97156
2022-10-20T02:00:14.771Z,103.58549
2022-10-20T02:05:16.396Z,108.26667
2022-10-20T02:10:18.049Z,157.88889
2022-10-20T02:15:19.698Z,115.11111
2022-10-20T02:20:21.331Z,93.87835
2022-10-20T02:25:22.996Z,93.51456
2022-10-20T02:30:24.651Z,96.09877
2022-10-20T02:35:26.281Z,118.50425
2022-10-20T02:40:27.880Z,98
2022-10-20T02:45:29.528Z,87.25581
2022-10-20T02:50:31.174Z,84.63927
2022-10-20T02:55:32.772Z,83.68254
2022-10-20T03:00:34.411Z,100.34518
2022-10-20T03:05:36.192Z,102.35476
2022-10-20T03:10:37.824Z,113.23077
2022-10-20T03:15:39.442Z,122.55072
2022-10-20T03:20:41.049Z,97.23383
2022-10-20T03:25:42.803Z,110.93767
2022-10-20T03:30:44.405Z,102.35476
2022-10-20T03:35:46.905Z,98.77387
2022-10-20T03:40:48.729Z,115.11111
2022-10-20T03:45:50.378Z,109.14745
2022-10-20T03:50:52.022Z,122.55072
2022-10-20T03:55:53.670Z,117.03371
2022-10-20T04:00:55.269Z,99.16373
2022-10-20T04:05:56.776Z,93.87835
2022-10-20T04:10:58.393Z,84.63927
2022-10-20T04:16:00.003Z,80.58537
2022-10-20T04:21:01.650Z,79.38462
2022-10-20T04:26:03.381Z,81.5
2022-10-20T04:31:04.998Z,79.08772
2022-10-20T04:36:06.602Z,78.49782
2022-10-20T04:41:08.263Z,78.79212
2022-10-20T04:46:09.886Z,80.58537
2022-10-20T04:51:11.484Z,82.42697
2022-10-20T04:56:13.229Z,82.42697
2022-10-20T05:01:14.986Z,80.28319
2022-10-20T05:06:16.721Z,81.80761
2022-10-20T05:11:18.344Z,87.25581
2022-10-20T05:16:20.059Z,84.9611
2022-10-20T05:21:21.777Z,87.92523
2022-10-20T05:26:23.358Z,89.62648
2022-10-20T05:31:25.118Z,88.94118
2022-10-20T05:36:26.772Z,94.98039
2022-10-20T05:41:28.379Z,96.09877
2022-10-20T05:46:29.989Z,91.36842
2022-10-20T05:51:31.618Z,91.36842
2022-10-20T05:56:33.208Z,86.92343
2022-10-20T06:01:34.805Z,100.743
2022-10-20T06:06:36.437Z,109.14745
2022-10-20T06:11:39.501Z,110.48649
2022-10-20T06:16:41.447Z,96.47525
2022-10-20T06:26:44.886Z,101.54476
2022-10-20T06:31:46.483Z,117.52113
2022-10-20T06:36:48.104Z,100.743
2022-10-20T06:41:49.748Z,95.35135
2022-10-20T06:46:51.378Z,104
2022-10-20T06:51:53.198Z,105.25654
2022-10-20T06:56:54.775Z,98.77387
2022-10-20T07:01:56.398Z,95.35135
2022-10-20T07:06:58.041Z,104.41667
2022-10-20T07:11:59.644Z,102.35476
2022-10-20T07:17:01.282Z,115.11111
2022-10-20T07:22:03.036Z,112.30601
2022-10-20T07:27:04.673Z,109.14745
2022-10-20T07:32:06.275Z,107.39523
2022-10-20T07:37:07.976Z,105.67979
2022-10-20T07:42:09.687Z,116.06704
2022-10-20T07:47:11.336Z,111.84741
2022-10-20T07:52:12.956Z,111.84741
2022-10-20T07:57:14.611Z,122.03468
2022-10-20T08:02:16.295Z,115.58774
2022-10-20T08:07:17.983Z,108.26667
2022-10-20T08:12:19.700Z,118.0113
2022-10-20T08:17:22.128Z,117.03371
2022-10-20T08:22:23.835Z,129.54217
2022-10-20T08:27:25.503Z,124.11696
2022-10-20T08:32:27.094Z,121.52161
2022-10-20T08:37:28.691Z,118.0113
2022-10-20T08:42:30.289Z,125.71091
2022-10-20T08:47:33.440Z,122.55072
2022-10-20T08:52:35.438Z,132.3792
2022-10-20T08:57:37.116Z,130.10272
2022-10-20T09:02:38.827Z,130.10272
2022-10-20T09:07:40.580Z,130.66667
2022-10-20T09:12:42.201Z,130.10272
2022-10-20T09:17:43.843Z,137.10345
2022-10-20T09:22:45.434Z,139.55556
2022-10-20T09:27:47.036Z,130.66667
2022-10-20T09:32:48.884Z,142.07074
2022-10-20T09:37:50.602Z,135.90031
2022-10-20T09:42:52.267Z,130.10272
2022-10-20T09:47:53.987Z,164
2022-10-20T09:52:55.581Z,176.45283
2022-10-20T09:57:57.281Z,149.33333
2022-10-20T10:02:59.018Z,138.32177
2022-10-20T10:08:00.629Z,131.23404
2022-10-20T10:13:02.339Z,138.32177
2022-10-20T10:18:04.006Z,133.53846
2022-10-20T10:23:05.611Z,157.88889
2022-10-20T10:28:07.444Z,155.68385
2022-10-20T10:33:09.051Z,147.97351
2022-10-20T10:38:10.650Z,138.93671
2022-10-20T10:43:12.326Z,150.02007
2022-10-20T10:48:14.112Z,130.66667
2022-10-20T10:53:15.732Z,121.52161
2022-10-20T10:58:17.380Z,113.23077
2022-10-20T11:03:19.079Z,99.94937
2022-10-20T11:08:20.689Z,96.8536
2022-10-20T11:13:24.558Z,96.09877
2022-10-20T11:18:28.621Z,98
2022-10-20T11:23:30.263Z,105.25654
2022-10-20T11:28:31.950Z,127.33333
2022-10-20T11:33:35.723Z,119
2022-10-20T11:38:39.644Z,121.01149
2022-10-20T11:43:41.373Z,118.50425
2022-10-20T11:48:42.954Z,106.53298
2022-10-20T11:53:44.860Z,130.10272
2022-10-20T11:58:46.518Z,124.64516
2022-10-20T12:03:48.146Z,118.50425
2022-10-20T12:08:49.787Z,118.50425
2022-10-20T12:13:51.442Z,122.03468
2022-10-20T12:18:53.155Z,119.49858
2022-10-20T12:23:54.849Z,120
2022-10-20T12:28:56.442Z,112.76712
2022-10-20T12:33:58.086Z,103.58549
2022-10-20T12:38:59.734Z,120
2022-10-20T12:44:01.349Z,119.49858
2022-10-20T12:49:05.535Z,118.0113
2022-10-20T12:54:10.062Z,114.63712
2022-10-20T12:59:11.667Z,99.55556
2022-10-20T13:04:13.353Z,112.30601
2022-10-20T13:09:14.988Z,110.93767
2022-10-20T13:14:16.618Z,93.87835
2022-10-20T13:19:18.232Z,86.59259
2022-10-20T13:24:19.874Z,81.80761
2022-10-20T13:29:21.522Z,82.42697
2022-10-20T13:34:23.158Z,84
2022-10-20T13:39:24.878Z,98.38596
2022-10-20T13:44:31.196Z,104.83551
2022-10-20T13:49:33.899Z,94.2439
2022-10-20T13:54:35.499Z,89.97156
2022-10-20T13:59:38.626Z,86.59259
2022-10-20T14:04:42.326Z,85.6092
2022-10-20T14:09:47.451Z,87.25581
2022-10-20T14:14:51.056Z,84.9611
2022-10-20T14:19:52.631Z,84.31891
2022-10-20T14:24:54.238Z,85.93548
2022-10-20T14:29:55.982Z,88.94118
2022-10-20T14:39:58.176Z,93.51456
2022-10-20T14:44:59.856Z,104.83551
2022-10-20T14:50:01.611Z,97.61596
2022-10-20T14:55:03.272Z,89.62648
2022-10-20T15:00:05.134Z,92.43373
2022-10-20T15:05:06.810Z,86.59259
2022-10-20T15:10:08.407Z,86.59259
2022-10-20T15:15:10.165Z,85.6092
2022-10-20T15:20:11.853Z,98
2022-10-20T15:25:13.692Z,101.14286
2022-10-20T15:30:15.280Z,111.84741
2022-10-20T15:35:16.933Z,160.90141
2022-10-20T15:40:18.559Z,154.23891
2022-10-20T15:45:20.130Z,134.71207
2022-10-20T15:50:24.225Z,127.33333
2022-10-20T15:55:26.686Z,114.63712
2022-10-20T16:00:28.278Z,120
2022-10-20T16:05:29.886Z,113.23077
2022-10-20T16:10:31.606Z,109.5914
2022-10-20T16:15:33.240Z,111.3913
2022-10-20T16:20:34.865Z,109.5914
2022-10-20T16:25:36.431Z,107.82979
2022-10-20T16:30:38.026Z,115.58774
2022-10-20T16:35:39.701Z,105.25654
2022-10-20T16:40:41.454Z,102.35476
2022-10-20T16:45:43.141Z,111.84741
2022-10-20T16:50:44.813Z,122.55072
2022-10-20T16:55:46.542Z,127.33333
2022-10-20T17:00:48.190Z,124.64516
2022-10-20T17:05:49.858Z,114.16575
2022-10-20T17:10:51.509Z,126.24852
2022-10-20T17:15:53.128Z,134.71207
2022-10-20T17:20:54.733Z,154.23891
2022-10-20T17:25:56.346Z,152.81356
2022-10-20T17:30:57.971Z,163.21708
2022-10-20T17:35:59.564Z,115.58774
2022-10-20T17:41:01.232Z,140.80511
2022-10-20T17:46:02.850Z,157.14879
2022-10-20T17:51:04.536Z,142.70968
2022-10-20T17:56:06.173Z,160.90141
2022-10-20T18:01:07.816Z,156.41379
2022-10-20T18:06:09.515Z,142.07074
2022-10-20T18:11:11.142Z,152.81356
2022-10-20T18:16:12.748Z,153.52381
2022-10-20T18:21:14.341Z,164.78853
2022-10-20T18:26:15.934Z,161.66784
2022-10-20T18:31:17.555Z,165.58273
2022-10-20T18:36:19.217Z,180.01533
2022-10-20T18:41:20.900Z,128.98498
2022-10-20T18:46:22.558Z,128.43114
2022-10-20T18:51:24.190Z,120.5043
2022-10-20T18:56:25.885Z,107.82979
2022-10-20T19:01:27.643Z,103.58549
2022-10-20T19:06:29.336Z,102.76289
2022-10-20T19:11:31.072Z,104
2022-10-20T19:16:32.692Z,114.63712
2022-10-20T19:21:34.399Z,115.58774
2022-10-20T19:26:36.009Z,113.69697
2022-10-20T19:31:37.608Z,121.01149
2022-10-20T19:36:39.246Z,131.80488
2022-10-20T19:41:40.867Z,125.71091
2022-10-20T19:46:42.493Z,123.59184
2022-10-20T19:51:44.150Z,126.78932
2022-10-20T19:56:45.828Z,147.97351
2022-10-20T20:01:47.446Z,116.06704
2022-10-20T20:06:49.177Z,118.0113
2022-10-20T20:11:50.847Z,135.90031
2022-10-20T20:16:52.455Z,125.71091
2022-10-20T20:21:54.094Z,155.68385
2022-10-20T20:26:55.759Z,162.43972
2022-10-20T20:31:57.381Z,144.65147
2022-10-20T20:36:59.039Z,135.30435
2022-10-20T20:42:00.742Z,134.12346
2022-10-20T20:47:02.384Z,175.57895
2022-10-20T20:52:03.958Z,150.71141
2022-10-20T20:57:05.610Z,163.21708
2022-10-20T21:02:07.312Z,173.85075
2022-10-20T21:07:08.940Z,176.45283
2022-10-20T21:17:12.241Z,156.41379
2022-10-20T21:22:13.859Z,195.42857
2022-10-20T21:27:15.461Z,192.3871
2022-10-20T21:32:17.057Z,211.82609
2022-10-20T21:37:18.689Z,238.73684
2022-10-20T21:42:20.314Z,168
2022-10-20T21:47:21.969Z,170.47059
2022-10-20T21:52:23.583Z,244.4878
2022-10-20T21:57:25.320Z,194.4065
2022-10-20T22:02:26.933Z,190.4
2022-10-20T22:07:28.672Z,286.22222
2022-10-20T22:12:30.424Z,230.51163
2022-10-20T22:17:32.056Z,292.0226
2022-10-20T22:22:33.725Z,284.33149
2022-10-20T22:27:42.308Z,214.17544
2022-10-20T22:32:44.391Z,182.75969
2022-10-20T22:37:45.996Z,156.41379
2022-10-20T22:42:47.683Z,126.24852
2022-10-20T22:47:49.282Z,225.27854
2022-10-20T22:52:50.895Z,140.80511
2022-10-20T22:57:52.591Z,131.80488
2022-10-20T23:02:54.309Z,147.97351
2022-10-20T23:07:55.949Z,131.23404
2022-10-20T23:12:57.819Z,108.26667
2022-10-20T23:17:59.461Z,112.76712
2022-10-20T23:23:01.125Z,128.98498
2022-10-20T23:28:02.837Z,134.12346
2022-10-20T23:33:04.636Z,108.26667
2022-10-20T23:38:06.240Z,134.12346
2022-10-20T23:43:07.804Z,110.93767
2022-10-20T23:48:09.514Z,103.17313
2022-10-20T23:53:11.127Z,90.31829
2022-10-20T23:58:12.751Z,110.03774
